sensor_id;sensor_type;location;lat;lon;timestamp;temperature;humidity
23544;DHT22;11950;51.230;4.012;2023-03-25T00:01:06;12.20;99.90
23544;DHT22;11950;51.230;4.012;2023-03-25T00:03:40;12.20;99.90
23544;DHT22;11950;51.230;4.012;2023-03-25T00:06:08;12.20;99.90
23544;DHT22;11950;51.230;4.012;2023-03-25T00:08:36;12.20;99.90
23544;DHT22;11950;51.230;4.012;2023-03-25T00:11:03;12.20;99.90
23544;DHT22;11950;51.230;4.012;2023-03-25T00:13:30;12.20;99.90
23544;DHT22;11950;51.230;4.012;2023-03-25T00:15:57;12.20;99.90
23544;DHT22;11950;51.230;4.012;2023-03-25T00:18:26;12.20;99.90
23544;DHT22;11950;51.230;4.012;2023-03-25T00:20:55;12.10;99.90
23544;DHT22;11950;51.230;4.012;2023-03-25T00:23:22;12.10;99.90
23544;DHT22;11950;51.230;4.012;2023-03-25T00:25:49;12.00;99.90
23544;DHT22;11950;51.230;4.012;2023-03-25T00:28:17;12.00;99.90
23544;DHT22;11950;51.230;4.012;2023-03-25T00:30:44;12.10;99.90
23544;DHT22;11950;51.230;4.012;2023-03-25T00:33:11;12.10;99.90
23544;DHT22;11950;51.230;4.012;2023-03-25T00:35:41;12.10;99.90
23544;DHT22;11950;51.230;4.012;2023-03-25T00:38:10;12.00;99.90
23544;DHT22;11950;51.230;4.012;2023-03-25T00:40:37;12.00;99.90
23544;DHT22;11950;51.230;4.012;2023-03-25T00:43:04;12.00;99.90
23544;DHT22;11950;51.230;4.012;2023-03-25T00:45:32;12.00;99.90
23544;DHT22;11950;51.230;4.012;2023-03-25T00:47:58;12.00;99.90
23544;DHT22;11950;51.230;4.012;2023-03-25T00:50:25;12.00;99.90
23544;DHT22;11950;51.230;4.012;2023-03-25T00:52:51;12.00;99.90
23544;DHT22;11950;51.230;4.012;2023-03-25T00:55:21;11.90;99.90
23544;DHT22;11950;51.230;4.012;2023-03-25T00:57:47;12.00;99.90
23544;DHT22;11950;51.230;4.012;2023-03-25T01:00:15;11.90;99.90
23544;DHT22;11950;51.230;4.012;2023-03-25T01:02:42;11.90;99.90
23544;DHT22;11950;51.230;4.012;2023-03-25T01:05:11;11.90;99.90
23544;DHT22;11950;51.230;4.012;2023-03-25T01:07:38;11.90;99.90
23544;DHT22;11950;51.230;4.012;2023-03-25T01:10:06;11.80;99.90
23544;DHT22;11950;51.230;4.012;2023-03-25T01:12:33;11.80;99.90
23544;DHT22;11950;51.230;4.012;2023-03-25T01:15:00;11.80;99.90
23544;DHT22;11950;51.230;4.012;2023-03-25T01:17:26;11.70;99.90
23544;DHT22;11950;51.230;4.012;2023-03-25T01:19:52;11.70;99.90
23544;DHT22;11950;51.230;4.012;2023-03-25T01:22:18;11.70;99.90
23544;DHT22;11950;51.230;4.012;2023-03-25T01:24:45;11.70;99.90
23544;DHT22;11950;51.230;4.012;2023-03-25T01:27:12;11.70;99.90
23544;DHT22;11950;51.230;4.012;2023-03-25T01:29:39;11.70;99.90
23544;DHT22;11950;51.230;4.012;2023-03-25T01:32:05;11.60;99.90
23544;DHT22;11950;51.230;4.012;2023-03-25T01:34:32;11.60;99.90
23544;DHT22;11950;51.230;4.012;2023-03-25T01:36:58;11.70;99.90
23544;DHT22;11950;51.230;4.012;2023-03-25T01:39:26;11.60;99.90
23544;DHT22;11950;51.230;4.012;2023-03-25T01:41:52;11.60;99.90
23544;DHT22;11950;51.230;4.012;2023-03-25T01:46:52;11.60;99.90
23544;DHT22;11950;51.230;4.012;2023-03-25T01:49:23;11.60;99.90
23544;DHT22;11950;51.230;4.012;2023-03-25T01:51:58;11.50;99.90
23544;DHT22;11950;51.230;4.012;2023-03-25T01:54:26;11.60;99.90
23544;DHT22;11950;51.230;4.012;2023-03-25T01:56:53;11.50;99.90
23544;DHT22;11950;51.230;4.012;2023-03-25T01:59:23;11.50;99.90
23544;DHT22;11950;51.230;4.012;2023-03-25T02:01:52;11.60;99.90
23544;DHT22;11950;51.230;4.012;2023-03-25T02:04:26;11.50;99.90
23544;DHT22;11950;51.230;4.012;2023-03-25T02:06:56;11.60;99.90
23544;DHT22;11950;51.230;4.012;2023-03-25T02:09:24;11.60;99.90
23544;DHT22;11950;51.230;4.012;2023-03-25T02:11:51;11.50;99.90
23544;DHT22;11950;51.230;4.012;2023-03-25T02:14:22;11.50;99.90
23544;DHT22;11950;51.230;4.012;2023-03-25T02:28:35;11.40;99.90
23544;DHT22;11950;51.230;4.012;2023-03-25T02:34:36;11.40;99.90
23544;DHT22;11950;51.230;4.012;2023-03-25T02:37:32;11.40;99.90
23544;DHT22;11950;51.230;4.012;2023-03-25T02:40:23;11.40;99.90
23544;DHT22;11950;51.230;4.012;2023-03-25T02:43:17;11.40;99.90
23544;DHT22;11950;51.230;4.012;2023-03-25T02:45:50;11.50;99.90
23544;DHT22;11950;51.230;4.012;2023-03-25T02:51:17;11.50;99.90
23544;DHT22;11950;51.230;4.012;2023-03-25T02:53:47;11.50;99.90
23544;DHT22;11950;51.230;4.012;2023-03-25T02:56:16;11.50;99.90
23544;DHT22;11950;51.230;4.012;2023-03-25T02:58:48;11.40;99.90
23544;DHT22;11950;51.230;4.012;2023-03-25T03:01:16;11.50;99.90
23544;DHT22;11950;51.230;4.012;2023-03-25T03:03:42;11.50;99.90
23544;DHT22;11950;51.230;4.012;2023-03-25T03:06:15;11.40;99.90
23544;DHT22;11950;51.230;4.012;2023-03-25T03:08:45;11.40;99.90
23544;DHT22;11950;51.230;4.012;2023-03-25T03:11:23;11.40;99.90
23544;DHT22;11950;51.230;4.012;2023-03-25T03:14:30;11.40;99.90
23544;DHT22;11950;51.230;4.012;2023-03-25T03:17:25;11.40;99.90
23544;DHT22;11950;51.230;4.012;2023-03-25T03:25:47;11.40;99.90
23544;DHT22;11950;51.230;4.012;2023-03-25T03:28:38;11.40;99.90
23544;DHT22;11950;51.230;4.012;2023-03-25T03:31:10;11.40;99.90
23544;DHT22;11950;51.230;4.012;2023-03-25T03:36:15;11.30;99.90
23544;DHT22;11950;51.230;4.012;2023-03-25T03:38:48;11.30;99.90
23544;DHT22;11950;51.230;4.012;2023-03-25T03:41:21;11.30;99.90
23544;DHT22;11950;51.230;4.012;2023-03-25T03:44:00;11.30;99.90
23544;DHT22;11950;51.230;4.012;2023-03-25T03:46:32;11.20;99.90
23544;DHT22;11950;51.230;4.012;2023-03-25T03:49:01;11.30;99.90
23544;DHT22;11950;51.230;4.012;2023-03-25T03:51:35;11.20;99.90
23544;DHT22;11950;51.230;4.012;2023-03-25T03:56:49;11.10;99.90
23544;DHT22;11950;51.230;4.012;2023-03-25T03:59:38;11.10;99.90
23544;DHT22;11950;51.230;4.012;2023-03-25T04:02:13;11.10;99.90
23544;DHT22;11950;51.230;4.012;2023-03-25T04:04:49;11.10;99.90
23544;DHT22;11950;51.230;4.012;2023-03-25T04:07:23;11.10;99.90
23544;DHT22;11950;51.230;4.012;2023-03-25T04:10:09;11.00;99.90
23544;DHT22;11950;51.230;4.012;2023-03-25T04:12:51;11.00;99.90
23544;DHT22;11950;51.230;4.012;2023-03-25T04:15:18;10.90;99.90
23544;DHT22;11950;51.230;4.012;2023-03-25T04:17:44;11.00;99.90
23544;DHT22;11950;51.230;4.012;2023-03-25T04:20:14;11.00;99.90
23544;DHT22;11950;51.230;4.012;2023-03-25T04:22:41;11.00;99.90
23544;DHT22;11950;51.230;4.012;2023-03-25T04:25:11;11.00;99.90
23544;DHT22;11950;51.230;4.012;2023-03-25T04:27:38;11.00;99.90
23544;DHT22;11950;51.230;4.012;2023-03-25T04:30:06;11.00;99.90
23544;DHT22;11950;51.230;4.012;2023-03-25T04:32:33;11.00;99.90
23544;DHT22;11950;51.230;4.012;2023-03-25T04:35:00;11.00;99.90
23544;DHT22;11950;51.230;4.012;2023-03-25T04:37:27;11.00;99.90
23544;DHT22;11950;51.230;4.012;2023-03-25T04:39:54;11.00;99.90
23544;DHT22;11950;51.230;4.012;2023-03-25T04:42:21;11.00;99.90
23544;DHT22;11950;51.230;4.012;2023-03-25T04:44:51;11.00;99.90
23544;DHT22;11950;51.230;4.012;2023-03-25T04:47:21;10.90;99.90
23544;DHT22;11950;51.230;4.012;2023-03-25T04:49:48;11.00;99.90
23544;DHT22;11950;51.230;4.012;2023-03-25T04:52:14;11.00;99.90
23544;DHT22;11950;51.230;4.012;2023-03-25T04:54:41;11.00;99.90
23544;DHT22;11950;51.230;4.012;2023-03-25T04:57:10;10.90;99.90
23544;DHT22;11950;51.230;4.012;2023-03-25T04:59:36;10.90;99.90
23544;DHT22;11950;51.230;4.012;2023-03-25T05:02:03;11.00;99.90
23544;DHT22;11950;51.230;4.012;2023-03-25T05:04:33;11.00;99.90
23544;DHT22;11950;51.230;4.012;2023-03-25T05:06:59;10.90;99.90
23544;DHT22;11950;51.230;4.012;2023-03-25T05:09:25;10.90;99.90
23544;DHT22;11950;51.230;4.012;2023-03-25T05:11:52;10.80;99.90
23544;DHT22;11950;51.230;4.012;2023-03-25T05:14:20;10.70;99.90
23544;DHT22;11950;51.230;4.012;2023-03-25T05:16:47;10.70;99.90
23544;DHT22;11950;51.230;4.012;2023-03-25T05:19:14;10.70;99.90
23544;DHT22;11950;51.230;4.012;2023-03-25T05:21:43;10.70;99.90
23544;DHT22;11950;51.230;4.012;2023-03-25T05:24:11;10.70;99.90
23544;DHT22;11950;51.230;4.012;2023-03-25T05:26:40;10.70;99.90
23544;DHT22;11950;51.230;4.012;2023-03-25T05:29:09;10.70;99.90
23544;DHT22;11950;51.230;4.012;2023-03-25T05:31:40;10.60;99.90
23544;DHT22;11950;51.230;4.012;2023-03-25T05:34:07;10.60;99.90
23544;DHT22;11950;51.230;4.012;2023-03-25T05:36:33;10.70;99.90
23544;DHT22;11950;51.230;4.012;2023-03-25T05:39:00;10.70;99.90
23544;DHT22;11950;51.230;4.012;2023-03-25T05:41:27;10.70;99.90
23544;DHT22;11950;51.230;4.012;2023-03-25T05:44:05;10.70;99.90
23544;DHT22;11950;51.230;4.012;2023-03-25T05:46:32;10.70;99.90
23544;DHT22;11950;51.230;4.012;2023-03-25T05:48:58;10.70;99.90
23544;DHT22;11950;51.230;4.012;2023-03-25T05:51:26;10.70;99.90
23544;DHT22;11950;51.230;4.012;2023-03-25T05:53:53;10.80;99.90
23544;DHT22;11950;51.230;4.012;2023-03-25T05:56:21;10.70;99.90
23544;DHT22;11950;51.230;4.012;2023-03-25T05:58:49;10.80;99.90
23544;DHT22;11950;51.230;4.012;2023-03-25T06:01:18;10.80;99.90
23544;DHT22;11950;51.230;4.012;2023-03-25T06:03:45;10.80;99.90
23544;DHT22;11950;51.230;4.012;2023-03-25T06:06:12;10.90;99.90
23544;DHT22;11950;51.230;4.012;2023-03-25T06:08:40;10.90;99.90
23544;DHT22;11950;51.230;4.012;2023-03-25T06:11:09;10.90;99.90
23544;DHT22;11950;51.230;4.012;2023-03-25T06:13:39;10.90;99.90
23544;DHT22;11950;51.230;4.012;2023-03-25T06:16:07;10.90;99.90
23544;DHT22;11950;51.230;4.012;2023-03-25T06:18:35;10.90;99.90
23544;DHT22;11950;51.230;4.012;2023-03-25T06:21:03;11.00;99.90
23544;DHT22;11950;51.230;4.012;2023-03-25T06:23:30;11.00;99.90
23544;DHT22;11950;51.230;4.012;2023-03-25T06:26:00;11.00;99.90
23544;DHT22;11950;51.230;4.012;2023-03-25T06:28:27;11.00;99.90
23544;DHT22;11950;51.230;4.012;2023-03-25T06:30:53;11.00;99.90
23544;DHT22;11950;51.230;4.012;2023-03-25T06:33:19;11.00;99.90
23544;DHT22;11950;51.230;4.012;2023-03-25T06:35:47;11.10;99.90
23544;DHT22;11950;51.230;4.012;2023-03-25T06:38:20;11.10;99.90
23544;DHT22;11950;51.230;4.012;2023-03-25T06:41:10;11.20;99.90
23544;DHT22;11950;51.230;4.012;2023-03-25T06:43:38;11.20;99.90
23544;DHT22;11950;51.230;4.012;2023-03-25T06:46:07;11.20;99.90
23544;DHT22;11950;51.230;4.012;2023-03-25T06:49:08;11.20;99.90
23544;DHT22;11950;51.230;4.012;2023-03-25T06:51:35;11.20;99.90
23544;DHT22;11950;51.230;4.012;2023-03-25T06:54:03;11.20;99.90
23544;DHT22;11950;51.230;4.012;2023-03-25T06:56:30;11.20;99.90
23544;DHT22;11950;51.230;4.012;2023-03-25T06:58:56;11.20;99.90
23544;DHT22;11950;51.230;4.012;2023-03-25T07:01:22;11.20;99.90
23544;DHT22;11950;51.230;4.012;2023-03-25T07:03:49;11.10;99.90
23544;DHT22;11950;51.230;4.012;2023-03-25T07:06:17;11.20;99.90
23544;DHT22;11950;51.230;4.012;2023-03-25T07:08:44;11.10;99.90
23544;DHT22;11950;51.230;4.012;2023-03-25T07:11:11;11.20;99.90
23544;DHT22;11950;51.230;4.012;2023-03-25T07:13:39;11.20;99.90
23544;DHT22;11950;51.230;4.012;2023-03-25T07:16:07;11.30;99.90
23544;DHT22;11950;51.230;4.012;2023-03-25T07:18:33;11.20;99.90
23544;DHT22;11950;51.230;4.012;2023-03-25T07:20:59;11.20;99.90
23544;DHT22;11950;51.230;4.012;2023-03-25T07:23:26;11.30;99.90
23544;DHT22;11950;51.230;4.012;2023-03-25T07:25:52;11.30;99.90
23544;DHT22;11950;51.230;4.012;2023-03-25T07:28:19;11.40;99.90
23544;DHT22;11950;51.230;4.012;2023-03-25T07:30:46;11.40;99.90
23544;DHT22;11950;51.230;4.012;2023-03-25T07:33:12;11.40;99.90
23544;DHT22;11950;51.230;4.012;2023-03-25T07:35:39;11.50;99.90
23544;DHT22;11950;51.230;4.012;2023-03-25T07:38:05;11.70;99.90
23544;DHT22;11950;51.230;4.012;2023-03-25T07:40:32;11.50;99.90
23544;DHT22;11950;51.230;4.012;2023-03-25T07:42:58;11.60;99.90
23544;DHT22;11950;51.230;4.012;2023-03-25T07:45:53;11.70;99.90
23544;DHT22;11950;51.230;4.012;2023-03-25T07:48:20;11.70;99.90
23544;DHT22;11950;51.230;4.012;2023-03-25T07:50:50;11.70;99.90
23544;DHT22;11950;51.230;4.012;2023-03-25T07:53:17;11.70;99.90
23544;DHT22;11950;51.230;4.012;2023-03-25T07:55:44;11.80;99.90
23544;DHT22;11950;51.230;4.012;2023-03-25T07:58:17;11.80;99.90
23544;DHT22;11950;51.230;4.012;2023-03-25T08:00:44;11.90;99.90
23544;DHT22;11950;51.230;4.012;2023-03-25T08:03:11;11.90;99.90
23544;DHT22;11950;51.230;4.012;2023-03-25T08:05:46;11.90;99.90
23544;DHT22;11950;51.230;4.012;2023-03-25T08:08:13;11.90;99.90
23544;DHT22;11950;51.230;4.012;2023-03-25T08:10:41;12.00;99.90
23544;DHT22;11950;51.230;4.012;2023-03-25T08:13:09;12.00;99.90
23544;DHT22;11950;51.230;4.012;2023-03-25T08:15:35;12.00;99.90
23544;DHT22;11950;51.230;4.012;2023-03-25T08:18:01;12.00;99.90
23544;DHT22;11950;51.230;4.012;2023-03-25T08:20:28;12.00;99.90
23544;DHT22;11950;51.230;4.012;2023-03-25T08:22:55;12.00;99.90
23544;DHT22;11950;51.230;4.012;2023-03-25T08:25:23;12.10;99.90
23544;DHT22;11950;51.230;4.012;2023-03-25T08:27:50;12.10;99.90
23544;DHT22;11950;51.230;4.012;2023-03-25T08:30:16;12.10;99.90
23544;DHT22;11950;51.230;4.012;2023-03-25T08:32:43;12.20;99.90
23544;DHT22;11950;51.230;4.012;2023-03-25T08:35:12;12.20;99.90
23544;DHT22;11950;51.230;4.012;2023-03-25T08:37:38;12.20;99.90
23544;DHT22;11950;51.230;4.012;2023-03-25T08:40:06;12.30;99.90
23544;DHT22;11950;51.230;4.012;2023-03-25T08:42:36;12.30;99.90
23544;DHT22;11950;51.230;4.012;2023-03-25T08:45:04;12.40;99.90
23544;DHT22;11950;51.230;4.012;2023-03-25T08:47:30;12.40;99.90
23544;DHT22;11950;51.230;4.012;2023-03-25T08:49:57;12.50;99.90
23544;DHT22;11950;51.230;4.012;2023-03-25T08:52:23;12.50;99.90
23544;DHT22;11950;51.230;4.012;2023-03-25T08:54:49;12.60;99.90
23544;DHT22;11950;51.230;4.012;2023-03-25T08:57:16;12.60;99.90
23544;DHT22;11950;51.230;4.012;2023-03-25T08:59:42;12.60;99.90
23544;DHT22;11950;51.230;4.012;2023-03-25T09:02:10;12.70;99.90
23544;DHT22;11950;51.230;4.012;2023-03-25T09:04:37;12.80;99.90
23544;DHT22;11950;51.230;4.012;2023-03-25T09:07:07;12.90;99.90
23544;DHT22;11950;51.230;4.012;2023-03-25T09:09:36;12.90;99.90
23544;DHT22;11950;51.230;4.012;2023-03-25T09:12:04;12.90;99.90
23544;DHT22;11950;51.230;4.012;2023-03-25T09:14:31;13.00;99.90
23544;DHT22;11950;51.230;4.012;2023-03-25T09:16:58;12.90;99.90
23544;DHT22;11950;51.230;4.012;2023-03-25T09:19:24;13.00;99.90
23544;DHT22;11950;51.230;4.012;2023-03-25T09:21:51;13.00;99.90
23544;DHT22;11950;51.230;4.012;2023-03-25T09:24:17;13.00;99.90
23544;DHT22;11950;51.230;4.012;2023-03-25T09:26:44;13.00;99.90
23544;DHT22;11950;51.230;4.012;2023-03-25T09:29:10;13.00;99.90
23544;DHT22;11950;51.230;4.012;2023-03-25T09:31:36;13.10;99.90
23544;DHT22;11950;51.230;4.012;2023-03-25T09:34:03;13.10;99.90
23544;DHT22;11950;51.230;4.012;2023-03-25T09:36:29;13.20;99.90
23544;DHT22;11950;51.230;4.012;2023-03-25T09:38:57;13.20;99.90
23544;DHT22;11950;51.230;4.012;2023-03-25T09:44:32;13.20;99.90
23544;DHT22;11950;51.230;4.012;2023-03-25T09:47:02;13.30;99.90
23544;DHT22;11950;51.230;4.012;2023-03-25T09:49:37;13.30;99.90
23544;DHT22;11950;51.230;4.012;2023-03-25T09:52:04;13.40;99.90
23544;DHT22;11950;51.230;4.012;2023-03-25T09:54:35;13.40;99.90
23544;DHT22;11950;51.230;4.012;2023-03-25T09:57:06;13.40;99.90
23544;DHT22;11950;51.230;4.012;2023-03-25T09:59:50;13.40;99.90
23544;DHT22;11950;51.230;4.012;2023-03-25T10:02:30;13.40;99.90
23544;DHT22;11950;51.230;4.012;2023-03-25T10:07:52;13.30;99.90
23544;DHT22;11950;51.230;4.012;2023-03-25T10:21:11;13.50;99.90
23544;DHT22;11950;51.230;4.012;2023-03-25T10:26:49;13.70;99.90
23544;DHT22;11950;51.230;4.012;2023-03-25T10:29:24;13.70;99.90
23544;DHT22;11950;51.230;4.012;2023-03-25T10:31:55;13.60;99.90
23544;DHT22;11950;51.230;4.012;2023-03-25T10:34:40;13.50;99.90
23544;DHT22;11950;51.230;4.012;2023-03-25T10:37:12;13.40;99.90
23544;DHT22;11950;51.230;4.012;2023-03-25T10:39:43;13.20;99.90
23544;DHT22;11950;51.230;4.012;2023-03-25T10:42:32;13.20;99.90
23544;DHT22;11950;51.230;4.012;2023-03-25T10:45:01;13.30;99.90
23544;DHT22;11950;51.230;4.012;2023-03-25T10:47:30;13.40;99.90
23544;DHT22;11950;51.230;4.012;2023-03-25T10:49:58;13.50;99.90
23544;DHT22;11950;51.230;4.012;2023-03-25T10:52:25;13.70;99.90
23544;DHT22;11950;51.230;4.012;2023-03-25T10:54:54;13.70;99.90
23544;DHT22;11950;51.230;4.012;2023-03-25T10:57:25;13.80;99.90
23544;DHT22;11950;51.230;4.012;2023-03-25T10:59:57;13.90;99.90
23544;DHT22;11950;51.230;4.012;2023-03-25T11:02:27;14.00;99.90
23544;DHT22;11950;51.230;4.012;2023-03-25T11:05:00;14.10;99.90
23544;DHT22;11950;51.230;4.012;2023-03-25T11:07:37;14.10;99.90
23544;DHT22;11950;51.230;4.012;2023-03-25T11:10:23;14.10;99.90
23544;DHT22;11950;51.230;4.012;2023-03-25T11:12:52;14.20;99.90
23544;DHT22;11950;51.230;4.012;2023-03-25T11:20:36;14.00;99.90
23544;DHT22;11950;51.230;4.012;2023-03-25T11:26:26;13.80;99.90
23544;DHT22;11950;51.230;4.012;2023-03-25T11:28:59;13.70;99.90
23544;DHT22;11950;51.230;4.012;2023-03-25T11:31:27;13.60;99.90
23544;DHT22;11950;51.230;4.012;2023-03-25T11:36:38;13.40;99.90
23544;DHT22;11950;51.230;4.012;2023-03-25T11:41:50;13.30;99.90
23544;DHT22;11950;51.230;4.012;2023-03-25T11:44:30;13.30;99.90
23544;DHT22;11950;51.230;4.012;2023-03-25T11:47:02;13.40;99.90
23544;DHT22;11950;51.230;4.012;2023-03-25T11:49:29;13.50;99.90
23544;DHT22;11950;51.230;4.012;2023-03-25T11:52:07;13.50;99.90
23544;DHT22;11950;51.230;4.012;2023-03-25T11:54:34;13.50;99.90
23544;DHT22;11950;51.230;4.012;2023-03-25T11:57:06;13.60;99.90
23544;DHT22;11950;51.230;4.012;2023-03-25T11:59:38;13.70;99.90
23544;DHT22;11950;51.230;4.012;2023-03-25T12:02:21;13.80;99.90
23544;DHT22;11950;51.230;4.012;2023-03-25T12:05:08;14.00;99.90
23544;DHT22;11950;51.230;4.012;2023-03-25T12:07:49;14.10;99.90
23544;DHT22;11950;51.230;4.012;2023-03-25T12:10:19;14.30;99.90
23544;DHT22;11950;51.230;4.012;2023-03-25T12:13:11;14.40;99.90
23544;DHT22;11950;51.230;4.012;2023-03-25T12:21:12;14.40;99.90
23544;DHT22;11950;51.230;4.012;2023-03-25T12:27:19;14.30;99.90
23544;DHT22;11950;51.230;4.012;2023-03-25T12:36:16;14.20;99.90
23544;DHT22;11950;51.230;4.012;2023-03-25T12:38:51;14.20;99.90
23544;DHT22;11950;51.230;4.012;2023-03-25T12:44:07;14.20;99.90
23544;DHT22;11950;51.230;4.012;2023-03-25T12:46:59;14.10;99.90
23544;DHT22;11950;51.230;4.012;2023-03-25T12:49:59;14.20;99.90
23544;DHT22;11950;51.230;4.012;2023-03-25T12:52:40;14.20;99.90
23544;DHT22;11950;51.230;4.012;2023-03-25T13:09:04;14.10;99.90
23544;DHT22;11950;51.230;4.012;2023-03-25T13:14:17;14.00;99.90
23544;DHT22;11950;51.230;4.012;2023-03-25T13:16:47;14.00;99.90
23544;DHT22;11950;51.230;4.012;2023-03-25T13:19:22;14.10;99.90
23544;DHT22;11950;51.230;4.012;2023-03-25T13:21:52;14.10;99.90
23544;DHT22;11950;51.230;4.012;2023-03-25T13:24:35;14.10;99.90
23544;DHT22;11950;51.230;4.012;2023-03-25T13:27:04;14.10;99.90
23544;DHT22;11950;51.230;4.012;2023-03-25T13:29:53;14.20;99.90
23544;DHT22;11950;51.230;4.012;2023-03-25T13:32:37;14.20;99.90
23544;DHT22;11950;51.230;4.012;2023-03-25T13:38:00;14.50;99.90
23544;DHT22;11950;51.230;4.012;2023-03-25T13:43:44;14.60;99.90
23544;DHT22;11950;51.230;4.012;2023-03-25T13:46:17;14.70;99.90
23544;DHT22;11950;51.230;4.012;2023-03-25T13:48:47;14.80;99.90
23544;DHT22;11950;51.230;4.012;2023-03-25T13:51:15;14.90;99.90
23544;DHT22;11950;51.230;4.012;2023-03-25T13:53:50;14.90;99.90
23544;DHT22;11950;51.230;4.012;2023-03-25T14:06:17;15.20;99.90
23544;DHT22;11950;51.230;4.012;2023-03-25T14:11:32;15.30;99.90
23544;DHT22;11950;51.230;4.012;2023-03-25T14:14:37;15.40;99.90
23544;DHT22;11950;51.230;4.012;2023-03-25T14:16:57;15.40;99.90
23544;DHT22;11950;51.230;4.012;2023-03-25T14:19:36;15.40;99.90
23544;DHT22;11950;51.230;4.012;2023-03-25T14:22:12;15.50;99.90
23544;DHT22;11950;51.230;4.012;2023-03-25T14:24:39;15.50;99.90
23544;DHT22;11950;51.230;4.012;2023-03-25T14:30:04;15.50;99.90
23544;DHT22;11950;51.230;4.012;2023-03-25T14:32:39;15.60;99.90
23544;DHT22;11950;51.230;4.012;2023-03-25T14:38:48;15.60;99.90
23544;DHT22;11950;51.230;4.012;2023-03-25T14:41:08;15.50;99.90
23544;DHT22;11950;51.230;4.012;2023-03-25T14:43:38;15.50;99.90
23544;DHT22;11950;51.230;4.012;2023-03-25T14:48:53;15.30;99.90
23544;DHT22;11950;51.230;4.012;2023-03-25T14:54:17;15.20;99.90
23544;DHT22;11950;51.230;4.012;2023-03-25T14:57:12;15.00;99.90
23544;DHT22;11950;51.230;4.012;2023-03-25T14:59:54;15.00;99.90
23544;DHT22;11950;51.230;4.012;2023-03-25T15:02:25;14.90;99.90
23544;DHT22;11950;51.230;4.012;2023-03-25T15:05:17;14.80;99.90
23544;DHT22;11950;51.230;4.012;2023-03-25T15:10:44;14.80;99.90
23544;DHT22;11950;51.230;4.012;2023-03-25T15:13:26;14.70;99.90
23544;DHT22;11950;51.230;4.012;2023-03-25T15:16:05;14.70;99.90
23544;DHT22;11950;51.230;4.012;2023-03-25T15:23:35;14.70;99.90
23544;DHT22;11950;51.230;4.012;2023-03-25T15:26:10;14.70;99.90
23544;DHT22;11950;51.230;4.012;2023-03-25T15:28:41;14.80;99.90
23544;DHT22;11950;51.230;4.012;2023-03-25T15:36:45;14.90;99.90
23544;DHT22;11950;51.230;4.012;2023-03-25T15:39:43;14.90;99.90
23544;DHT22;11950;51.230;4.012;2023-03-25T15:45:21;14.80;99.90
23544;DHT22;11950;51.230;4.012;2023-03-25T15:55:32;14.70;99.90
23544;DHT22;11950;51.230;4.012;2023-03-25T15:58:14;14.60;99.90
23544;DHT22;11950;51.230;4.012;2023-03-25T16:00:46;14.70;99.90
23544;DHT22;11950;51.230;4.012;2023-03-25T16:03:18;14.70;99.90
23544;DHT22;11950;51.230;4.012;2023-03-25T16:05:50;14.80;99.90
23544;DHT22;11950;51.230;4.012;2023-03-25T16:13:44;14.80;99.90
23544;DHT22;11950;51.230;4.012;2023-03-25T16:16:12;14.80;99.90
23544;DHT22;11950;51.230;4.012;2023-03-25T16:18:41;14.80;99.90
23544;DHT22;11950;51.230;4.012;2023-03-25T16:21:08;14.80;99.90
23544;DHT22;11950;51.230;4.012;2023-03-25T16:23:36;14.80;99.90
23544;DHT22;11950;51.230;4.012;2023-03-25T16:26:11;14.80;99.90
23544;DHT22;11950;51.230;4.012;2023-03-25T16:28:40;14.80;99.90
23544;DHT22;11950;51.230;4.012;2023-03-25T16:31:34;14.80;99.90
23544;DHT22;11950;51.230;4.012;2023-03-25T16:34:12;14.80;99.90
23544;DHT22;11950;51.230;4.012;2023-03-25T16:36:44;14.90;99.90
23544;DHT22;11950;51.230;4.012;2023-03-25T16:39:15;14.90;99.90
23544;DHT22;11950;51.230;4.012;2023-03-25T16:41:52;14.90;99.90
23544;DHT22;11950;51.230;4.012;2023-03-25T16:44:24;14.80;99.90
23544;DHT22;11950;51.230;4.012;2023-03-25T16:46:52;14.80;99.90
23544;DHT22;11950;51.230;4.012;2023-03-25T16:51:54;14.70;99.90
23544;DHT22;11950;51.230;4.012;2023-03-25T16:54:31;14.70;99.90
23544;DHT22;11950;51.230;4.012;2023-03-25T16:57:00;14.70;99.90
23544;DHT22;11950;51.230;4.012;2023-03-25T16:59:31;14.60;99.90
23544;DHT22;11950;51.230;4.012;2023-03-25T17:02:25;14.60;99.90
23544;DHT22;11950;51.230;4.012;2023-03-25T17:04:53;14.60;99.90
23544;DHT22;11950;51.230;4.012;2023-03-25T17:07:27;14.60;99.90
23544;DHT22;11950;51.230;4.012;2023-03-25T17:09:58;14.50;99.90
23544;DHT22;11950;51.230;4.012;2023-03-25T17:12:26;14.50;99.90
23544;DHT22;11950;51.230;4.012;2023-03-25T17:15:02;14.50;99.90
23544;DHT22;11950;51.230;4.012;2023-03-25T17:17:46;14.40;99.90
23544;DHT22;11950;51.230;4.012;2023-03-25T17:20:20;14.40;99.90
23544;DHT22;11950;51.230;4.012;2023-03-25T17:23:03;14.40;99.90
23544;DHT22;11950;51.230;4.012;2023-03-25T17:25:35;14.30;99.90
23544;DHT22;11950;51.230;4.012;2023-03-25T17:28:41;14.30;99.90
23544;DHT22;11950;51.230;4.012;2023-03-25T17:34:00;14.30;99.90
23544;DHT22;11950;51.230;4.012;2023-03-25T17:36:30;14.20;99.90
23544;DHT22;11950;51.230;4.012;2023-03-25T17:38:57;14.10;99.90
23544;DHT22;11950;51.230;4.012;2023-03-25T17:41:28;13.90;99.90
23544;DHT22;11950;51.230;4.012;2023-03-25T17:43:55;13.80;99.90
23544;DHT22;11950;51.230;4.012;2023-03-25T17:46:25;13.70;99.90
23544;DHT22;11950;51.230;4.012;2023-03-25T17:48:52;13.60;99.90
23544;DHT22;11950;51.230;4.012;2023-03-25T17:51:20;13.50;99.90
23544;DHT22;11950;51.230;4.012;2023-03-25T17:53:47;13.40;99.90
23544;DHT22;11950;51.230;4.012;2023-03-25T17:56:18;13.40;99.90
23544;DHT22;11950;51.230;4.012;2023-03-25T17:58:46;13.30;99.90
23544;DHT22;11950;51.230;4.012;2023-03-25T18:01:12;13.20;99.90
23544;DHT22;11950;51.230;4.012;2023-03-25T18:03:39;13.10;99.90
23544;DHT22;11950;51.230;4.012;2023-03-25T18:06:06;13.10;99.90
23544;DHT22;11950;51.230;4.012;2023-03-25T18:08:33;13.10;99.90
23544;DHT22;11950;51.230;4.012;2023-03-25T18:10:59;13.10;99.90
23544;DHT22;11950;51.230;4.012;2023-03-25T18:13:26;13.10;99.90
23544;DHT22;11950;51.230;4.012;2023-03-25T18:15:55;13.00;99.90
23544;DHT22;11950;51.230;4.012;2023-03-25T18:18:24;13.00;99.90
23544;DHT22;11950;51.230;4.012;2023-03-25T18:20:52;12.90;99.90
23544;DHT22;11950;51.230;4.012;2023-03-25T18:23:21;12.90;99.90
23544;DHT22;11950;51.230;4.012;2023-03-25T18:25:48;12.90;99.90
23544;DHT22;11950;51.230;4.012;2023-03-25T18:28:14;12.80;99.90
23544;DHT22;11950;51.230;4.012;2023-03-25T18:30:54;12.70;99.90
23544;DHT22;11950;51.230;4.012;2023-03-25T18:33:21;12.70;99.90
23544;DHT22;11950;51.230;4.012;2023-03-25T18:35:48;12.60;99.90
23544;DHT22;11950;51.230;4.012;2023-03-25T18:38:22;12.60;99.90
23544;DHT22;11950;51.230;4.012;2023-03-25T18:40:50;12.50;99.90